WXM80 ListenWXM80 Stop

You find our weather info also at:

UK Metoffice

WeatherCloud

Weather Underground

Northeastern Weather Network

AWEKAS

Citizen Weather Observer Program (CWOP)

HAMweather, WeatherForYou, PWS Weather


Weather Underground History page Text

Daily Summary for Nil La, TWC- Units:  Metric    English   Both
« Previous Day
Next Day »
Daily Weekly Monthly Yearly Custom
  High: Low: Average:
Temperature: 17.5 °C 15.9 °C 16.9 °C
Dew Point: 16.7 °C 12.6 °C 15.1 °C
Humidity: 95 % 75 % 89 %
Wind Speed: 9.2 km/h 0 km/h 1.6 km/h
Wind Gust: 20.4 km/h - -
Wind:- - ENE
Pressure: 1015.1 hPa 1009 hPa -
Precipitation: 0 mm    
Historical Graphs
 
 
Tabular Data for Nil La, TWC-
Time Temperature Dew Point Pressure Wind Wind Speed Wind Gust Humidity Rainfall Rate (Hourly)
00:04 16.9 °C 14.9 °C 1015.1 hPa Calm     88 % 0 mm
00:09 16.9 °C 15.1 °C 1015.1 hPa Calm     89 % 0 mm
00:14 16.9 °C 15.1 °C 1015.1 hPa Calm     89 % 0 mm
00:19 16.9 °C 15.3 °C 1015.1 hPa Calm     90 % 0 mm
00:24 17.1 °C 15.8 °C 1015.1 hPa Calm     92 % 0 mm
00:29 17.2 °C 16.1 °C 1015.1 hPa Calm     93 % 0 mm
00:34 17.3 °C 16.1 °C 1015.1 hPa Calm     93 % 0 mm
00:39 17.3 °C 16.1 °C 1015.1 hPa Calm     93 % 0 mm
00:44 17.3 °C 16.2 °C 1014.8 hPa Calm     93 % 0 mm
00:49 17.3 °C 16.2 °C 1014.8 hPa Calm     93 % 0 mm
00:54 17.3 °C 16.1 °C 1014.8 hPa Calm     93 % 0 mm
00:59 17.3 °C 16.1 °C 1014.8 hPa Calm     93 % 0 mm
01:04 17.2 °C 16.1 °C 1014.4 hPa Calm     93 % 0 mm
01:09 17.2 °C 16 °C 1014.4 hPa ENE 1.3 km/h 3.7 km/h 93 % 0 mm
01:14 17 °C 15.7 °C 1014.1 hPa Calm   3.7 km/h 92 % 0 mm
01:19 16.9 °C 15.6 °C 1014.1 hPa Calm   3.7 km/h 92 % 0 mm
01:24 16.9 °C 15.6 °C 1014.1 hPa ENE 1 km/h 11.1 km/h 92 % 0 mm
01:29 16.9 °C 15.6 °C 1014.1 hPa ENE 0.8 km/h 6.4 km/h 92 % 0 mm
01:34 16.9 °C 15.4 °C 1014.1 hPa ENE 0.6 km/h 3.7 km/h 91 % 0 mm
01:39 16.9 °C 15.4 °C 1014.1 hPa Calm     91 % 0 mm
01:44 16.9 °C 15.4 °C 1014.1 hPa ENE 1.4 km/h 5.6 km/h 91 % 0 mm
01:49 16.9 °C 15.3 °C 1014.1 hPa Calm   5.6 km/h 90 % 0 mm
01:54 16.9 °C 15.3 °C 1014.1 hPa ENE 0.5 km/h 5.6 km/h 90 % 0 mm
01:59 17 °C 15.3 °C 1014.1 hPa Calm   1.9 km/h 90 % 0 mm
02:04 17 °C 15.3 °C 1014.1 hPa Calm     90 % 0 mm
02:09 17.1 °C 15.2 °C 1014.1 hPa Calm     89 % 0 mm
02:14 17.1 °C 15.2 °C 1014.1 hPa Calm     89 % 0 mm
02:19 17.1 °C 15.2 °C 1013.8 hPa ENE 0.2 km/h   89 % 0 mm
02:24 17.1 °C 15.2 °C 1013.8 hPa Calm   3.7 km/h 89 % 0 mm
02:29 17.1 °C 15.2 °C 1013.8 hPa Calm     89 % 0 mm
02:34 17.1 °C 15.1 °C 1013.8 hPa Calm     88 % 0 mm
02:39 17.1 °C 15.1 °C 1013.8 hPa Calm     88 % 0 mm
02:44 17.1 °C 14.9 °C 1013.4 hPa Calm   1.9 km/h 87 % 0 mm
02:49 17.1 °C 14.9 °C 1013.4 hPa Calm   1.9 km/h 87 % 0 mm
02:54 17.1 °C 14.9 °C 1013.4 hPa Calm     87 % 0 mm
02:59 17.1 °C 14.7 °C 1013.4 hPa Calm     86 % 0 mm
03:04 17.1 °C 14.7 °C 1013.4 hPa Calm     86 % 0 mm
03:09 17.1 °C 14.7 °C 1013.1 hPa Calm     86 % 0 mm
03:14 17.1 °C 14.6 °C 1013.1 hPa Calm     85 % 0 mm
03:19 17.1 °C 14.6 °C 1013.1 hPa Calm     85 % 0 mm
03:24 17.2 °C 14.6 °C 1013.1 hPa Calm     85 % 0 mm
03:29 17.2 °C 14.4 °C 1012.8 hPa Calm     84 % 0 mm
03:34 17.2 °C 14.4 °C 1012.4 hPa NE 0.8 km/h 5.6 km/h 84 % 0 mm
03:39 17.2 °C 14.5 °C 1012.8 hPa Calm     84 % 0 mm
03:44 17.2 °C 14.5 °C 1012.8 hPa Calm   1.9 km/h 84 % 0 mm
03:49 17.2 °C 14.3 °C 1012.8 hPa NE 0.6 km/h   83 % 0 mm
03:54 17.2 °C 14.3 °C 1012.8 hPa East 0.2 km/h 1.9 km/h 83 % 0 mm
03:59 17.3 °C 14.4 °C 1012.8 hPa East 0.3 km/h   83 % 0 mm
04:04 17.3 °C 14.4 °C 1012.8 hPa Calm     83 % 0 mm
04:09 17.3 °C 14.6 °C 1012.4 hPa Calm     84 % 0 mm
04:14 17.3 °C 14.8 °C 1012.4 hPa Calm   1.9 km/h 85 % 0 mm
04:19 17.4 °C 15 °C 1012.4 hPa ENE 0.8 km/h 1.6 km/h 86 % 0 mm
04:24 17.4 °C 15 °C 1012.4 hPa Calm     86 % 0 mm
04:29 17.4 °C 15 °C 1012.4 hPa Calm     86 % 0 mm
04:34 17.3 °C 14.9 °C 1012.4 hPa Calm     86 % 0 mm
04:39 17.3 °C 14.9 °C 1012.1 hPa ENE 1.6 km/h 5.6 km/h 86 % 0 mm
04:44 17.3 °C 14.9 °C 1012.1 hPa ENE 1.4 km/h 5.6 km/h 86 % 0 mm
04:49 17.3 °C 14.9 °C 1012.4 hPa ENE 0.5 km/h 3.7 km/h 86 % 0 mm
04:54 17.4 °C 15.2 °C 1012.4 hPa Calm     87 % 0 mm
04:59 17.3 °C 15.2 °C 1012.4 hPa Calm     87 % 0 mm
05:04 17.3 °C 15.2 °C 1012.4 hPa Calm     87 % 0 mm
05:09 17.3 °C 15.2 °C 1012.1 hPa Calm     87 % 0 mm
05:14 17.3 °C 15.2 °C 1012.1 hPa Calm     87 % 0 mm
05:19 17.3 °C 15.3 °C 1012.4 hPa Calm     88 % 0 mm
05:24 17.3 °C 15.1 °C 1012.4 hPa Calm     87 % 0 mm
05:29 17.3 °C 15.1 °C 1012.1 hPa Calm     87 % 0 mm
05:34 17.3 °C 15.3 °C 1012.1 hPa Calm     88 % 0 mm
05:39 17.3 °C 15.1 °C 1012.1 hPa Calm     87 % 0 mm
05:44 17.2 °C 15.1 °C 1012.1 hPa Calm     87 % 0 mm
05:49 17.2 °C 15.1 °C 1012.1 hPa Calm     87 % 0 mm
05:54 17.1 °C 13.4 °C 1012.1 hPa East 2.6 km/h 3.7 km/h 79 % 0 mm
05:59 17.1 °C 12.6 °C 1011.7 hPa ESE 2.4 km/h 3.7 km/h 75 % 0 mm
06:04 17.1 °C 12.6 °C 1012.1 hPa ESE 1.9 km/h 3.7 km/h 75 % 0 mm
06:09 17.1 °C 12.6 °C 1011.7 hPa ENE 2.6 km/h 3.7 km/h 75 % 0 mm
06:14 17.1 °C 12.8 °C 1011.7 hPa NNE 2.1 km/h 3.7 km/h 76 % 0 mm
06:19 17.2 °C 13.3 °C 1011.7 hPa NNE 1.4 km/h 3.7 km/h 78 % 0 mm
06:24 17.2 °C 13.3 °C 1011.7 hPa Calm     78 % 0 mm
06:29 17.2 °C 13.3 °C 1012.1 hPa Calm     78 % 0 mm
06:34 17.2 °C 13.5 °C 1011.7 hPa Calm     79 % 0 mm
06:39 17.2 °C 13.7 °C 1012.1 hPa ESE 0.5 km/h 3.7 km/h 80 % 0 mm
06:44 17.2 °C 13.7 °C 1011.7 hPa Calm   3.7 km/h 80 % 0 mm
06:49 17.2 °C 13.9 °C 1011.7 hPa Calm     81 % 0 mm
06:54 17.2 °C 13.9 °C 1012.1 hPa Calm     81 % 0 mm
06:59 17.2 °C 14.1 °C 1012.1 hPa Calm     82 % 0 mm
07:04 17.2 °C 14.1 °C 1012.1 hPa ENE 2.6 km/h 8 km/h 82 % 0 mm
07:09 17.2 °C 14.3 °C 1012.1 hPa Calm   3.7 km/h 83 % 0 mm
07:14 17.1 °C 14.2 °C 1011.7 hPa ENE 0.3 km/h 5.6 km/h 83 % 0 mm
07:19 17 °C 13.9 °C 1011.7 hPa ENE 1.1 km/h 5.6 km/h 82 % 0 mm
07:24 17 °C 14.1 °C 1011.7 hPa ENE 2.6 km/h 5.6 km/h 83 % 0 mm
07:29 16.9 °C 14 °C 1011.7 hPa ENE 2.6 km/h 5.6 km/h 83 % 0 mm
07:34 16.8 °C 13.9 °C 1012.1 hPa ENE 0.3 km/h 3.7 km/h 83 % 0 mm
07:39 16.8 °C 13.9 °C 1011.7 hPa ENE 1.3 km/h 5.6 km/h 83 % 0 mm
07:44 16.8 °C 13.9 °C 1011.7 hPa ENE 1.6 km/h 3.7 km/h 83 % 0 mm
07:49 16.8 °C 14.1 °C 1011.7 hPa Calm     84 % 0 mm
07:54 16.9 °C 14.2 °C 1012.1 hPa Calm   5.6 km/h 84 % 0 mm
07:59 16.9 °C 14.2 °C 1012.1 hPa Calm     84 % 0 mm
08:04 16.9 °C 14.2 °C 1012.1 hPa ENE 0.2 km/h 4.8 km/h 84 % 0 mm
08:09 16.9 °C 14.4 °C 1012.1 hPa Calm   1.9 km/h 85 % 0 mm
08:14 16.9 °C 14.4 °C 1011.7 hPa ENE 2.7 km/h 9.3 km/h 85 % 0 mm
08:19 16.9 °C 14.4 °C 1011.7 hPa Calm   3.7 km/h 85 % 0 mm
08:24 17 °C 14.4 °C 1011.7 hPa ENE 1.9 km/h 5.6 km/h 85 % 0 mm
08:29 17 °C 14.7 °C 1011.4 hPa ENE 2.1 km/h 6.4 km/h 86 % 0 mm
08:34 17 °C 14.7 °C 1011.4 hPa ENE 1.6 km/h 7.4 km/h 86 % 0 mm
08:39 17.1 °C 14.9 °C 1011.4 hPa ENE 1.4 km/h 3.7 km/h 87 % 0 mm
08:44 17.2 °C 15 °C 1011.4 hPa Calm   3.7 km/h 87 % 0 mm
08:49 17.2 °C 15.1 °C 1011.7 hPa ENE 1.3 km/h 3.7 km/h 87 % 0 mm
08:54 17.2 °C 15.2 °C 1011.7 hPa East 0.8 km/h 5.6 km/h 88 % 0 mm
08:59 17.2 °C 15.2 °C 1011.7 hPa Calm   5.6 km/h 88 % 0 mm
09:04 17.2 °C 15.2 °C 1011.4 hPa ENE 0.3 km/h 4.8 km/h 88 % 0 mm
09:09 17 °C 15 °C 1011.4 hPa East 5.6 km/h 9.3 km/h 88 % 0 mm
09:14 16.9 °C 14.9 °C 1011.4 hPa ENE 4.8 km/h 6.4 km/h 88 % 0 mm
09:19 16.8 °C 15 °C 1011.4 hPa ENE 2.9 km/h 5.6 km/h 89 % 0 mm
09:24 16.8 °C 15 °C 1011.4 hPa ENE 4.3 km/h 6.4 km/h 89 % 0 mm
09:29 16.7 °C 14.9 °C 1011.4 hPa ENE 6.6 km/h 8 km/h 89 % 0 mm
09:34 16.7 °C 15 °C 1011.4 hPa ENE 4.5 km/h 7.4 km/h 90 % 0 mm
09:39 16.7 °C 15 °C 1011.4 hPa ENE 4.2 km/h 5.6 km/h 90 % 0 mm
09:44 16.7 °C 15.2 °C 1011.4 hPa East 3.9 km/h 8 km/h 91 % 0 mm
09:49 16.6 °C 15.1 °C 1011.1 hPa ENE 3.5 km/h 7.4 km/h 91 % 0 mm
09:54 16.5 °C 15 °C 1011.1 hPa ENE 4.2 km/h 5.6 km/h 91 % 0 mm
09:59 16.4 °C 15.2 °C 1011.1 hPa ENE 2.6 km/h 5.6 km/h 92 % 0 mm
10:04 16.3 °C 15.1 °C 1011.1 hPa ENE 3.9 km/h 5.6 km/h 92 % 0 mm
10:09 16.3 °C 15.2 °C 1011.1 hPa ENE 0.3 km/h 5.6 km/h 93 % 0 mm
10:14 16.3 °C 15.2 °C 1011.1 hPa ENE 3.4 km/h 5.6 km/h 93 % 0 mm
10:19 16.3 °C 15.2 °C 1011.1 hPa ENE 4.5 km/h 5.6 km/h 93 % 0 mm
10:24 16.2 °C 15.1 °C 1011.1 hPa East 7.6 km/h 13 km/h 93 % 0 mm
10:29 16.1 °C 14.9 °C 1010.7 hPa East 8.7 km/h 12.9 km/h 93 % 0 mm
10:34 16 °C 14.9 °C 1010.7 hPa ENE 9.2 km/h 20.4 km/h 93 % 0 mm
10:39 16 °C 14.9 °C 1011.1 hPa ENE 3.1 km/h 5.6 km/h 93 % 0 mm
10:44 16 °C 14.9 °C 1011.1 hPa ENE 7.2 km/h 9.3 km/h 93 % 0 mm
10:49 15.9 °C 14.8 °C 1011.1 hPa ENE 4.5 km/h 5.6 km/h 93 % 0 mm
10:54 15.9 °C 15 °C 1011.1 hPa NE 3.9 km/h 14.8 km/h 94 % 0 mm
10:59 15.9 °C 15 °C 1011.1 hPa ENE 3.1 km/h 14.8 km/h 94 % 0 mm
11:04 16 °C 15.1 °C 1011.1 hPa ENE 5.1 km/h 9.3 km/h 94 % 0 mm
11:09 16 °C 15.1 °C 1011.4 hPa ENE 1.9 km/h 3.7 km/h 94 % 0 mm
11:14 16 °C 15.1 °C 1011.4 hPa ENE 1 km/h 6.4 km/h 94 % 0 mm
11:19 16 °C 15.1 °C 1011.1 hPa ENE 3.7 km/h 16.7 km/h 94 % 0 mm
11:24 16.1 °C 15.1 °C 1011.1 hPa ENE 3.2 km/h 5.6 km/h 94 % 0 mm
11:29 16.1 °C 15.2 °C 1011.1 hPa ENE 2.6 km/h 7.4 km/h 94 % 0 mm
11:34 16.2 °C 15.2 °C 1011.1 hPa ENE 3.2 km/h 6.4 km/h 94 % 0 mm
11:39 16.2 °C 15.2 °C 1011.1 hPa ENE 4.8 km/h 11.1 km/h 94 % 0 mm
11:44 16.2 °C 15.3 °C 1011.1 hPa ENE 5.1 km/h 5.6 km/h 94 % 0 mm
11:49 16.3 °C 15.3 °C 1011.1 hPa ENE 6 km/h 13 km/h 94 % 0 mm
11:54 16.3 °C 15.3 °C 1011.1 hPa NE 7.9 km/h 11.3 km/h 94 % 0 mm
11:59 16.4 °C 15.6 °C 1011.1 hPa ENE 7.9 km/h 13 km/h 95 % 0 mm
12:04 16.4 °C 15.5 °C 1011.1 hPa ENE 4.2 km/h 5.6 km/h 94 % 0 mm
12:09 16.4 °C 15.5 °C 1010.7 hPa ENE 2.3 km/h 5.6 km/h 94 % 0 mm
12:14 16.5 °C 15.6 °C 1010.7 hPa ENE 2.4 km/h 11.1 km/h 94 % 0 mm
12:19 16.6 °C 15.6 °C 1010.7 hPa ENE 3.5 km/h 6.4 km/h 94 % 0 mm
12:24 16.6 °C 15.7 °C 1010.7 hPa ENE 5 km/h 5.6 km/h 94 % 0 mm
12:29 16.7 °C 15.8 °C 1010.4 hPa ENE 1.9 km/h 5.6 km/h 94 % 0 mm
12:34 16.8 °C 15.8 °C 1010.4 hPa ENE 3.2 km/h 11.1 km/h 94 % 0 mm
12:39 16.8 °C 15.8 °C 1010.4 hPa ENE 5.3 km/h 8 km/h 94 % 0 mm
12:44 16.8 °C 15.8 °C 1010.4 hPa ENE 0.8 km/h 4.8 km/h 94 % 0 mm
12:49 16.8 °C 15.9 °C 1010.4 hPa ENE 2.7 km/h 5.6 km/h 94 % 0 mm
12:54 16.8 °C 15.8 °C 1010.4 hPa ENE 3.9 km/h 5.6 km/h 94 % 0 mm
12:59 16.8 °C 15.8 °C 1010.4 hPa ENE 4.3 km/h 11.1 km/h 94 % 0 mm
13:04 16.8 °C 15.8 °C 1010.4 hPa ENE 4.7 km/h 7.4 km/h 94 % 0 mm
13:09 16.9 °C 15.9 °C 1010.4 hPa Calm   1.9 km/h 94 % 0 mm
13:14 16.9 °C 15.9 °C 1010.4 hPa Calm   5.6 km/h 94 % 0 mm
13:19 17.1 °C 16.1 °C 1010 hPa ENE 0.5 km/h 1.9 km/h 94 % 0 mm
13:24 17.1 °C 16.1 °C 1010 hPa ENE 1.6 km/h 4.8 km/h 94 % 0 mm
13:29 17.2 °C 16.2 °C 1010 hPa Calm   1.6 km/h 94 % 0 mm
13:34 17.2 °C 16.2 °C 1010 hPa ENE 1 km/h 5.6 km/h 94 % 0 mm
13:39 17.2 °C 16 °C 1010 hPa ENE 5.5 km/h 5.6 km/h 93 % 0 mm
13:44 17.2 °C 16 °C 1010 hPa ENE 4 km/h 11.1 km/h 93 % 0 mm
13:49 17.2 °C 16 °C 1009.7 hPa ENE 1.9 km/h 5.6 km/h 93 % 0 mm
13:54 17.2 °C 16 °C 1009.7 hPa NE 2.6 km/h 5.6 km/h 93 % 0 mm
13:59 17.2 °C 16 °C 1010 hPa NE 0.5 km/h 4.8 km/h 93 % 0 mm
14:04 17.2 °C 16 °C 1010 hPa ENE 0.8 km/h 11.1 km/h 93 % 0 mm
14:09 17.2 °C 16 °C 1010 hPa ENE 0.8 km/h 4.8 km/h 93 % 0 mm
14:14 17.2 °C 16 °C 1010 hPa ENE 1 km/h 1.9 km/h 93 % 0 mm
14:19 17.2 °C 16.2 °C 1010 hPa ENE 1.1 km/h 5.6 km/h 94 % 0 mm
14:24 17.3 °C 16.1 °C 1009.7 hPa ENE 0.6 km/h 7.4 km/h 93 % 0 mm
14:29 17.2 °C 16.1 °C 1009.7 hPa ENE 1.1 km/h 9.3 km/h 93 % 0 mm
14:34 17.3 °C 16.1 °C 1009.7 hPa NE 1.3 km/h 5.6 km/h 93 % 0 mm
14:39 17.2 °C 16.1 °C 1009.7 hPa NE 3.5 km/h 16.7 km/h 93 % 0 mm
14:44 17.2 °C 16 °C 1009.7 hPa ENE 0.6 km/h 7.4 km/h 93 % 0 mm
14:49 17.2 °C 16 °C 1010 hPa NE 0.2 km/h 5.6 km/h 93 % 0 mm
14:54 17.2 °C 16.2 °C 1010 hPa ENE 2.1 km/h 7.4 km/h 94 % 0 mm
14:59 17.2 °C 16.2 °C 1010 hPa Calm     94 % 0 mm
15:04 17.2 °C 16.2 °C 1010 hPa Calm   1.9 km/h 94 % 0 mm
15:09 17.2 °C 16.2 °C 1009.7 hPa Calm     94 % 0 mm
15:14 17.2 °C 16.2 °C 1009.7 hPa NE 1.4 km/h 3.7 km/h 94 % 0 mm
15:19 17.3 °C 16.3 °C 1009.7 hPa NE 0.3 km/h 5.6 km/h 94 % 0 mm
15:24 17.3 °C 16.5 °C 1009.7 hPa NE 1.3 km/h 3.7 km/h 95 % 0 mm
15:29 17.3 °C 16.5 °C 1009.7 hPa NE 1 km/h 3.7 km/h 95 % 0 mm
15:34 17.4 °C 16.6 °C 1009.4 hPa ENE 1.3 km/h 5.6 km/h 95 % 0 mm
15:39 17.4 °C 16.6 °C 1009.4 hPa NE 2.6 km/h 7.4 km/h 95 % 0 mm
15:44 17.4 °C 16.6 °C 1009.4 hPa ENE 3.4 km/h 6.4 km/h 95 % 0 mm
15:49 17.4 °C 16.6 °C 1009 hPa ENE 0.2 km/h 3.7 km/h 95 % 0 mm
15:54 17.5 °C 16.7 °C 1009 hPa Calm     95 % 0 mm
Crab Meadow Weather
Compliments of Weather Underground - 2.25 mb

Script developed by  Jim McMurry - jmcmurry@mwt.net Adapted for the template by  Wim van der Kuil - Leuven-Template.eu

Astronomy: The rings of Saturn are made of ice and rock.